sensor_id;sensor_type;location;lat;lon;timestamp;P1;durP1;ratioP1;P2;durP2;ratioP2
77409;SDS011;66481;51.332;22.804;2024-02-04T00:01:28;7.85;;;4.47;;
77409;SDS011;66481;51.332;22.804;2024-02-04T00:05:30;8.93;;;3.95;;
77409;SDS011;66481;51.332;22.804;2024-02-04T00:09:31;6.80;;;4.10;;
77409;SDS011;66481;51.332;22.804;2024-02-04T00:13:33;9.13;;;4.07;;
77409;SDS011;66481;51.332;22.804;2024-02-04T00:17:34;7.22;;;3.63;;
77409;SDS011;66481;51.332;22.804;2024-02-04T00:21:35;8.27;;;3.80;;
77409;SDS011;66481;51.332;22.804;2024-02-04T00:25:37;5.60;;;3.70;;
77409;SDS011;66481;51.332;22.804;2024-02-04T00:29:38;8.57;;;4.18;;
77409;SDS011;66481;51.332;22.804;2024-02-04T00:33:39;8.32;;;4.35;;
77409;SDS011;66481;51.332;22.804;2024-02-04T00:37:40;7.82;;;3.88;;
77409;SDS011;66481;51.332;22.804;2024-02-04T00:41:41;8.27;;;3.88;;
77409;SDS011;66481;51.332;22.804;2024-02-04T00:45:42;10.70;;;4.72;;
77409;SDS011;66481;51.332;22.804;2024-02-04T00:49:43;6.43;;;3.53;;
77409;SDS011;66481;51.332;22.804;2024-02-04T00:53:46;5.57;;;2.90;;
77409;SDS011;66481;51.332;22.804;2024-02-04T00:57:47;5.03;;;2.80;;
77409;SDS011;66481;51.332;22.804;2024-02-04T01:01:49;7.63;;;3.47;;
77409;SDS011;66481;51.332;22.804;2024-02-04T01:05:50;4.55;;;2.75;;
77409;SDS011;66481;51.332;22.804;2024-02-04T01:09:51;6.22;;;2.50;;
77409;SDS011;66481;51.332;22.804;2024-02-04T01:13:52;7.18;;;2.50;;
77409;SDS011;66481;51.332;22.804;2024-02-04T01:17:53;9.25;;;2.42;;
77409;SDS011;66481;51.332;22.804;2024-02-04T01:21:55;3.55;;;1.70;;
77409;SDS011;66481;51.332;22.804;2024-02-04T01:25:56;6.18;;;2.15;;
77409;SDS011;66481;51.332;22.804;2024-02-04T01:29:57;3.97;;;1.80;;
77409;SDS011;66481;51.332;22.804;2024-02-04T01:33:59;4.03;;;1.90;;
77409;SDS011;66481;51.332;22.804;2024-02-04T01:37:59;3.00;;;1.75;;
77409;SDS011;66481;51.332;22.804;2024-02-04T01:42:00;4.50;;;1.58;;
77409;SDS011;66481;51.332;22.804;2024-02-04T01:46:01;3.65;;;1.25;;
77409;SDS011;66481;51.332;22.804;2024-02-04T01:50:03;4.22;;;1.65;;
77409;SDS011;66481;51.332;22.804;2024-02-04T01:54:04;3.28;;;1.02;;
77409;SDS011;66481;51.332;22.804;2024-02-04T01:58:07;5.65;;;1.63;;
77409;SDS011;66481;51.332;22.804;2024-02-04T02:02:10;6.43;;;1.63;;
77409;SDS011;66481;51.332;22.804;2024-02-04T02:06:12;2.97;;;1.67;;
77409;SDS011;66481;51.332;22.804;2024-02-04T02:10:14;6.57;;;1.52;;
77409;SDS011;66481;51.332;22.804;2024-02-04T02:14:16;5.15;;;1.58;;
77409;SDS011;66481;51.332;22.804;2024-02-04T02:18:25;5.80;;;1.85;;
77409;SDS011;66481;51.332;22.804;2024-02-04T02:26:49;5.25;;;2.20;;
77409;SDS011;66481;51.332;22.804;2024-02-04T02:30:51;6.63;;;2.40;;
77409;SDS011;66481;51.332;22.804;2024-02-04T02:34:52;5.38;;;2.85;;
77409;SDS011;66481;51.332;22.804;2024-02-04T02:38:58;7.03;;;2.90;;
77409;SDS011;66481;51.332;22.804;2024-02-04T02:43:11;4.53;;;1.92;;
77409;SDS011;66481;51.332;22.804;2024-02-04T02:47:13;4.15;;;2.00;;
77409;SDS011;66481;51.332;22.804;2024-02-04T02:51:16;4.68;;;1.90;;
77409;SDS011;66481;51.332;22.804;2024-02-04T02:55:17;4.85;;;1.85;;
77409;SDS011;66481;51.332;22.804;2024-02-04T02:59:18;8.45;;;1.98;;
77409;SDS011;66481;51.332;22.804;2024-02-04T03:03:19;5.85;;;1.92;;
77409;SDS011;66481;51.332;22.804;2024-02-04T03:07:21;4.13;;;1.70;;
77409;SDS011;66481;51.332;22.804;2024-02-04T03:11:22;5.47;;;2.25;;
77409;SDS011;66481;51.332;22.804;2024-02-04T03:15:26;6.28;;;2.70;;
77409;SDS011;66481;51.332;22.804;2024-02-04T03:19:28;5.22;;;2.20;;
77409;SDS011;66481;51.332;22.804;2024-02-04T03:23:29;3.60;;;1.88;;
77409;SDS011;66481;51.332;22.804;2024-02-04T03:27:30;4.28;;;2.20;;
77409;SDS011;66481;51.332;22.804;2024-02-04T03:31:31;7.13;;;3.05;;
77409;SDS011;66481;51.332;22.804;2024-02-04T03:35:33;6.55;;;3.20;;
77409;SDS011;66481;51.332;22.804;2024-02-04T03:39:36;6.20;;;3.22;;
77409;SDS011;66481;51.332;22.804;2024-02-04T03:43:37;6.72;;;2.72;;
77409;SDS011;66481;51.332;22.804;2024-02-04T03:47:39;7.22;;;3.25;;
77409;SDS011;66481;51.332;22.804;2024-02-04T03:51:40;9.23;;;3.58;;
77409;SDS011;66481;51.332;22.804;2024-02-04T03:55:41;6.22;;;3.22;;
77409;SDS011;66481;51.332;22.804;2024-02-04T03:59:45;3.47;;;2.38;;
77409;SDS011;66481;51.332;22.804;2024-02-04T04:03:47;11.23;;;3.10;;
77409;SDS011;66481;51.332;22.804;2024-02-04T04:07:48;4.63;;;2.40;;
77409;SDS011;66481;51.332;22.804;2024-02-04T04:11:49;4.45;;;2.38;;
77409;SDS011;66481;51.332;22.804;2024-02-04T04:15:50;7.88;;;3.17;;
77409;SDS011;66481;51.332;22.804;2024-02-04T04:19:51;5.40;;;2.10;;
77409;SDS011;66481;51.332;22.804;2024-02-04T04:23:53;4.88;;;2.13;;
77409;SDS011;66481;51.332;22.804;2024-02-04T04:27:54;4.97;;;2.70;;
77409;SDS011;66481;51.332;22.804;2024-02-04T04:31:57;5.63;;;2.40;;
77409;SDS011;66481;51.332;22.804;2024-02-04T04:35:58;5.90;;;2.47;;
77409;SDS011;66481;51.332;22.804;2024-02-04T04:39:59;6.47;;;2.40;;
77409;SDS011;66481;51.332;22.804;2024-02-04T04:44:00;6.55;;;2.22;;
77409;SDS011;66481;51.332;22.804;2024-02-04T04:48:01;6.25;;;2.40;;
77409;SDS011;66481;51.332;22.804;2024-02-04T04:52:02;6.22;;;2.72;;
77409;SDS011;66481;51.332;22.804;2024-02-04T04:56:03;8.88;;;2.30;;
77409;SDS011;66481;51.332;22.804;2024-02-04T05:00:05;5.80;;;2.50;;
77409;SDS011;66481;51.332;22.804;2024-02-04T05:04:10;6.03;;;2.08;;
77409;SDS011;66481;51.332;22.804;2024-02-04T05:08:12;9.43;;;2.42;;
77409;SDS011;66481;51.332;22.804;2024-02-04T05:12:15;5.35;;;2.47;;
77409;SDS011;66481;51.332;22.804;2024-02-04T05:16:16;5.05;;;2.25;;
77409;SDS011;66481;51.332;22.804;2024-02-04T05:20:17;4.78;;;2.35;;
77409;SDS011;66481;51.332;22.804;2024-02-04T05:24:18;7.43;;;3.75;;
77409;SDS011;66481;51.332;22.804;2024-02-04T05:28:19;3.78;;;1.83;;
77409;SDS011;66481;51.332;22.804;2024-02-04T05:32:20;4.75;;;2.22;;
77409;SDS011;66481;51.332;22.804;2024-02-04T05:36:21;3.47;;;1.83;;
77409;SDS011;66481;51.332;22.804;2024-02-04T05:40:23;8.68;;;2.78;;
77409;SDS011;66481;51.332;22.804;2024-02-04T05:44:23;3.40;;;1.77;;
77409;SDS011;66481;51.332;22.804;2024-02-04T05:48:24;8.38;;;2.83;;
77409;SDS011;66481;51.332;22.804;2024-02-04T05:52:25;3.55;;;2.08;;
77409;SDS011;66481;51.332;22.804;2024-02-04T05:56:27;5.18;;;1.58;;
77409;SDS011;66481;51.332;22.804;2024-02-04T06:00:28;3.45;;;1.80;;
77409;SDS011;66481;51.332;22.804;2024-02-04T06:04:30;4.47;;;1.63;;
77409;SDS011;66481;51.332;22.804;2024-02-04T06:08:31;3.63;;;1.50;;
77409;SDS011;66481;51.332;22.804;2024-02-04T06:12:32;6.68;;;2.10;;
77409;SDS011;66481;51.332;22.804;2024-02-04T06:16:33;9.63;;;2.35;;
77409;SDS011;66481;51.332;22.804;2024-02-04T06:20:35;3.42;;;1.30;;
77409;SDS011;66481;51.332;22.804;2024-02-04T06:24:36;3.75;;;1.20;;
77409;SDS011;66481;51.332;22.804;2024-02-04T06:28:40;3.45;;;1.60;;
77409;SDS011;66481;51.332;22.804;2024-02-04T06:32:41;4.63;;;1.98;;
77409;SDS011;66481;51.332;22.804;2024-02-04T06:36:43;4.07;;;1.52;;
77409;SDS011;66481;51.332;22.804;2024-02-04T06:40:47;2.53;;;1.40;;
77409;SDS011;66481;51.332;22.804;2024-02-04T06:44:48;2.42;;;1.63;;
77409;SDS011;66481;51.332;22.804;2024-02-04T06:48:49;6.47;;;1.67;;
77409;SDS011;66481;51.332;22.804;2024-02-04T06:52:52;3.30;;;1.40;;
77409;SDS011;66481;51.332;22.804;2024-02-04T06:56:53;2.65;;;1.48;;
77409;SDS011;66481;51.332;22.804;2024-02-04T07:00:54;3.65;;;1.20;;
77409;SDS011;66481;51.332;22.804;2024-02-04T07:04:55;4.72;;;2.30;;
77409;SDS011;66481;51.332;22.804;2024-02-04T07:08:56;2.58;;;1.15;;
77409;SDS011;66481;51.332;22.804;2024-02-04T07:12:58;1.42;;;1.00;;
77409;SDS011;66481;51.332;22.804;2024-02-04T07:16:59;2.42;;;1.20;;
77409;SDS011;66481;51.332;22.804;2024-02-04T07:21:00;1.90;;;0.90;;
77409;SDS011;66481;51.332;22.804;2024-02-04T07:25:02;1.88;;;0.90;;
77409;SDS011;66481;51.332;22.804;2024-02-04T07:29:04;2.90;;;1.02;;
77409;SDS011;66481;51.332;22.804;2024-02-04T07:33:05;3.05;;;1.23;;
77409;SDS011;66481;51.332;22.804;2024-02-04T07:37:06;5.68;;;1.55;;
77409;SDS011;66481;51.332;22.804;2024-02-04T07:41:07;3.70;;;2.00;;
77409;SDS011;66481;51.332;22.804;2024-02-04T07:45:09;7.57;;;1.98;;
77409;SDS011;66481;51.332;22.804;2024-02-04T07:49:11;3.65;;;1.30;;
77409;SDS011;66481;51.332;22.804;2024-02-04T07:53:12;6.55;;;2.22;;
77409;SDS011;66481;51.332;22.804;2024-02-04T07:57:14;4.40;;;2.00;;
77409;SDS011;66481;51.332;22.804;2024-02-04T08:01:15;3.53;;;1.45;;
77409;SDS011;66481;51.332;22.804;2024-02-04T08:05:19;3.78;;;1.73;;
77409;SDS011;66481;51.332;22.804;2024-02-04T08:09:20;5.40;;;1.33;;
77409;SDS011;66481;51.332;22.804;2024-02-04T08:13:21;4.78;;;1.63;;
77409;SDS011;66481;51.332;22.804;2024-02-04T08:17:22;5.15;;;1.70;;
77409;SDS011;66481;51.332;22.804;2024-02-04T08:21:24;4.18;;;1.73;;
77409;SDS011;66481;51.332;22.804;2024-02-04T08:25:26;4.72;;;1.30;;
77409;SDS011;66481;51.332;22.804;2024-02-04T08:29:27;4.60;;;2.08;;
77409;SDS011;66481;51.332;22.804;2024-02-04T08:33:29;7.25;;;2.33;;
77409;SDS011;66481;51.332;22.804;2024-02-04T08:37:30;6.25;;;2.40;;
77409;SDS011;66481;51.332;22.804;2024-02-04T08:41:32;9.32;;;3.03;;
77409;SDS011;66481;51.332;22.804;2024-02-04T08:45:33;5.47;;;2.13;;
77409;SDS011;66481;51.332;22.804;2024-02-04T08:49:36;7.20;;;2.00;;
77409;SDS011;66481;51.332;22.804;2024-02-04T08:53:38;6.22;;;2.20;;
77409;SDS011;66481;51.332;22.804;2024-02-04T08:57:39;8.88;;;2.70;;
77409;SDS011;66481;51.332;22.804;2024-02-04T09:01:41;6.43;;;2.63;;
77409;SDS011;66481;51.332;22.804;2024-02-04T09:05:43;5.55;;;1.83;;
77409;SDS011;66481;51.332;22.804;2024-02-04T09:09:46;6.30;;;3.35;;
77409;SDS011;66481;51.332;22.804;2024-02-04T09:13:47;12.43;;;2.60;;
77409;SDS011;66481;51.332;22.804;2024-02-04T09:17:48;7.93;;;1.77;;
77409;SDS011;66481;51.332;22.804;2024-02-04T09:21:51;9.55;;;2.50;;
77409;SDS011;66481;51.332;22.804;2024-02-04T09:25:52;6.15;;;1.90;;
77409;SDS011;66481;51.332;22.804;2024-02-04T09:29:53;4.88;;;2.38;;
77409;SDS011;66481;51.332;22.804;2024-02-04T09:33:56;7.43;;;2.88;;
77409;SDS011;66481;51.332;22.804;2024-02-04T09:37:58;9.38;;;3.35;;
77409;SDS011;66481;51.332;22.804;2024-02-04T09:41:59;9.52;;;3.95;;
77409;SDS011;66481;51.332;22.804;2024-02-04T09:46:01;9.63;;;2.60;;
77409;SDS011;66481;51.332;22.804;2024-02-04T09:50:02;4.03;;;1.30;;
77409;SDS011;66481;51.332;22.804;2024-02-04T09:54:04;12.93;;;4.40;;
77409;SDS011;66481;51.332;22.804;2024-02-04T09:58:09;6.35;;;2.00;;
77409;SDS011;66481;51.332;22.804;2024-02-04T10:02:10;6.15;;;2.40;;
77409;SDS011;66481;51.332;22.804;2024-02-04T10:06:14;7.10;;;2.05;;
77409;SDS011;66481;51.332;22.804;2024-02-04T10:10:17;6.82;;;2.55;;
77409;SDS011;66481;51.332;22.804;2024-02-04T10:14:18;6.18;;;2.13;;
77409;SDS011;66481;51.332;22.804;2024-02-04T10:18:21;6.43;;;2.05;;
77409;SDS011;66481;51.332;22.804;2024-02-04T10:22:25;6.78;;;2.65;;
77409;SDS011;66481;51.332;22.804;2024-02-04T10:26:30;6.15;;;1.73;;
77409;SDS011;66481;51.332;22.804;2024-02-04T10:30:32;5.30;;;1.95;;
77409;SDS011;66481;51.332;22.804;2024-02-04T10:34:36;8.00;;;3.55;;
77409;SDS011;66481;51.332;22.804;2024-02-04T10:38:38;9.95;;;2.45;;
77409;SDS011;66481;51.332;22.804;2024-02-04T10:42:39;10.65;;;2.28;;
77409;SDS011;66481;51.332;22.804;2024-02-04T10:46:45;9.60;;;3.15;;
77409;SDS011;66481;51.332;22.804;2024-02-04T10:50:48;8.43;;;2.58;;
77409;SDS011;66481;51.332;22.804;2024-02-04T10:54:51;7.30;;;2.50;;
77409;SDS011;66481;51.332;22.804;2024-02-04T10:58:54;6.95;;;2.97;;
77409;SDS011;66481;51.332;22.804;2024-02-04T11:02:57;5.85;;;2.33;;
77409;SDS011;66481;51.332;22.804;2024-02-04T11:07:00;5.50;;;1.77;;
77409;SDS011;66481;51.332;22.804;2024-02-04T11:11:04;4.55;;;1.85;;
77409;SDS011;66481;51.332;22.804;2024-02-04T11:15:07;4.65;;;2.03;;
77409;SDS011;66481;51.332;22.804;2024-02-04T11:23:43;3.00;;;1.73;;
77409;SDS011;66481;51.332;22.804;2024-02-04T11:28:05;4.70;;;1.60;;
77409;SDS011;66481;51.332;22.804;2024-02-04T11:32:07;10.48;;;2.67;;
77409;SDS011;66481;51.332;22.804;2024-02-04T11:36:12;3.58;;;2.05;;
77409;SDS011;66481;51.332;22.804;2024-02-04T11:40:14;7.97;;;2.53;;
77409;SDS011;66481;51.332;22.804;2024-02-04T11:44:20;6.63;;;2.85;;
77409;SDS011;66481;51.332;22.804;2024-02-04T11:48:28;6.38;;;2.35;;
77409;SDS011;66481;51.332;22.804;2024-02-04T11:52:32;6.38;;;2.25;;
77409;SDS011;66481;51.332;22.804;2024-02-04T11:56:33;4.65;;;2.22;;
77409;SDS011;66481;51.332;22.804;2024-02-04T12:00:36;3.17;;;1.67;;
77409;SDS011;66481;51.332;22.804;2024-02-04T12:04:38;4.90;;;1.58;;
77409;SDS011;66481;51.332;22.804;2024-02-04T12:08:40;4.55;;;2.00;;
77409;SDS011;66481;51.332;22.804;2024-02-04T12:12:43;5.07;;;1.77;;
77409;SDS011;66481;51.332;22.804;2024-02-04T12:16:47;4.18;;;1.38;;
77409;SDS011;66481;51.332;22.804;2024-02-04T12:20:58;4.97;;;1.70;;
77409;SDS011;66481;51.332;22.804;2024-02-04T12:25:01;6.03;;;1.95;;
77409;SDS011;66481;51.332;22.804;2024-02-04T12:29:06;3.45;;;1.33;;
77409;SDS011;66481;51.332;22.804;2024-02-04T12:33:07;2.88;;;1.80;;
77409;SDS011;66481;51.332;22.804;2024-02-04T12:37:10;3.38;;;1.77;;
77409;SDS011;66481;51.332;22.804;2024-02-04T12:41:12;3.88;;;1.63;;
77409;SDS011;66481;51.332;22.804;2024-02-04T12:45:14;5.45;;;2.10;;
77409;SDS011;66481;51.332;22.804;2024-02-04T12:49:19;3.92;;;2.17;;
77409;SDS011;66481;51.332;22.804;2024-02-04T12:53:26;6.45;;;2.15;;
77409;SDS011;66481;51.332;22.804;2024-02-04T12:57:27;5.38;;;1.77;;
77409;SDS011;66481;51.332;22.804;2024-02-04T13:01:29;6.85;;;2.33;;
77409;SDS011;66481;51.332;22.804;2024-02-04T13:05:30;12.05;;;4.15;;
77409;SDS011;66481;51.332;22.804;2024-02-04T13:09:32;7.28;;;3.33;;
77409;SDS011;66481;51.332;22.804;2024-02-04T13:13:34;7.25;;;2.95;;
77409;SDS011;66481;51.332;22.804;2024-02-04T13:17:38;4.88;;;2.17;;
77409;SDS011;66481;51.332;22.804;2024-02-04T13:21:40;8.43;;;2.58;;
77409;SDS011;66481;51.332;22.804;2024-02-04T13:25:41;6.07;;;2.70;;
77409;SDS011;66481;51.332;22.804;2024-02-04T13:29:43;5.35;;;2.95;;
77409;SDS011;66481;51.332;22.804;2024-02-04T13:33:45;4.53;;;2.38;;
77409;SDS011;66481;51.332;22.804;2024-02-04T13:37:47;6.78;;;3.03;;
77409;SDS011;66481;51.332;22.804;2024-02-04T13:41:51;4.88;;;2.35;;
77409;SDS011;66481;51.332;22.804;2024-02-04T13:45:54;4.43;;;2.70;;
77409;SDS011;66481;51.332;22.804;2024-02-04T13:49:56;5.40;;;2.40;;
77409;SDS011;66481;51.332;22.804;2024-02-04T13:54:01;7.95;;;2.13;;
77409;SDS011;66481;51.332;22.804;2024-02-04T13:58:04;7.20;;;3.20;;
77409;SDS011;66481;51.332;22.804;2024-02-04T14:02:07;4.70;;;2.25;;
77409;SDS011;66481;51.332;22.804;2024-02-04T14:06:11;5.07;;;2.25;;
77409;SDS011;66481;51.332;22.804;2024-02-04T14:10:13;7.35;;;2.47;;
77409;SDS011;66481;51.332;22.804;2024-02-04T14:14:15;7.70;;;2.97;;
77409;SDS011;66481;51.332;22.804;2024-02-04T14:18:25;11.20;;;3.25;;
77409;SDS011;66481;51.332;22.804;2024-02-04T14:22:34;4.80;;;2.67;;
77409;SDS011;66481;51.332;22.804;2024-02-04T14:26:35;5.80;;;2.38;;
77409;SDS011;66481;51.332;22.804;2024-02-04T14:30:37;7.10;;;2.13;;
77409;SDS011;66481;51.332;22.804;2024-02-04T14:34:38;7.38;;;2.90;;
77409;SDS011;66481;51.332;22.804;2024-02-04T14:38:39;6.45;;;3.22;;
77409;SDS011;66481;51.332;22.804;2024-02-04T14:42:41;6.13;;;3.17;;
77409;SDS011;66481;51.332;22.804;2024-02-04T14:46:42;4.25;;;2.33;;
77409;SDS011;66481;51.332;22.804;2024-02-04T14:50:46;7.85;;;3.05;;
77409;SDS011;66481;51.332;22.804;2024-02-04T14:54:49;9.88;;;2.72;;
77409;SDS011;66481;51.332;22.804;2024-02-04T14:58:53;7.57;;;2.65;;
77409;SDS011;66481;51.332;22.804;2024-02-04T15:02:55;10.15;;;3.05;;
77409;SDS011;66481;51.332;22.804;2024-02-04T15:06:56;6.68;;;2.92;;
77409;SDS011;66481;51.332;22.804;2024-02-04T15:10:57;7.90;;;3.30;;
77409;SDS011;66481;51.332;22.804;2024-02-04T15:14:59;7.47;;;3.75;;
77409;SDS011;66481;51.332;22.804;2024-02-04T15:19:02;6.85;;;3.78;;
77409;SDS011;66481;51.332;22.804;2024-02-04T15:23:04;6.70;;;3.47;;
77409;SDS011;66481;51.332;22.804;2024-02-04T15:27:07;6.47;;;3.22;;
77409;SDS011;66481;51.332;22.804;2024-02-04T15:31:12;7.38;;;3.30;;
77409;SDS011;66481;51.332;22.804;2024-02-04T15:35:13;6.20;;;3.00;;
77409;SDS011;66481;51.332;22.804;2024-02-04T15:39:17;6.57;;;2.80;;
77409;SDS011;66481;51.332;22.804;2024-02-04T15:43:22;8.23;;;2.85;;
77409;SDS011;66481;51.332;22.804;2024-02-04T15:47:24;7.97;;;3.13;;
77409;SDS011;66481;51.332;22.804;2024-02-04T15:51:32;9.15;;;3.72;;
77409;SDS011;66481;51.332;22.804;2024-02-04T15:55:34;7.30;;;3.45;;
77409;SDS011;66481;51.332;22.804;2024-02-04T16:03:51;11.65;;;4.50;;
77409;SDS011;66481;51.332;22.804;2024-02-04T16:07:55;8.57;;;3.67;;
77409;SDS011;66481;51.332;22.804;2024-02-04T16:16:06;6.07;;;2.97;;
77409;SDS011;66481;51.332;22.804;2024-02-04T16:20:13;10.77;;;3.63;;
77409;SDS011;66481;51.332;22.804;2024-02-04T16:24:18;7.95;;;3.00;;
77409;SDS011;66481;51.332;22.804;2024-02-04T16:28:19;12.27;;;3.90;;
77409;SDS011;66481;51.332;22.804;2024-02-04T16:32:20;8.65;;;3.20;;
77409;SDS011;66481;51.332;22.804;2024-02-04T16:36:22;13.05;;;4.25;;
77409;SDS011;66481;51.332;22.804;2024-02-04T16:40:26;13.70;;;4.82;;
77409;SDS011;66481;51.332;22.804;2024-02-04T16:44:27;6.90;;;3.10;;
77409;SDS011;66481;51.332;22.804;2024-02-04T16:48:29;9.48;;;4.10;;
77409;SDS011;66481;51.332;22.804;2024-02-04T16:52:30;12.55;;;4.65;;
77409;SDS011;66481;51.332;22.804;2024-02-04T16:56:32;10.05;;;3.90;;
77409;SDS011;66481;51.332;22.804;2024-02-04T17:00:34;8.57;;;3.15;;
77409;SDS011;66481;51.332;22.804;2024-02-04T17:04:36;5.70;;;2.83;;
77409;SDS011;66481;51.332;22.804;2024-02-04T17:08:38;8.07;;;3.33;;
77409;SDS011;66481;51.332;22.804;2024-02-04T17:12:39;6.10;;;2.92;;
77409;SDS011;66481;51.332;22.804;2024-02-04T17:16:45;9.30;;;3.70;;
77409;SDS011;66481;51.332;22.804;2024-02-04T17:21:05;6.15;;;2.88;;
77409;SDS011;66481;51.332;22.804;2024-02-04T17:25:11;7.15;;;3.08;;
77409;SDS011;66481;51.332;22.804;2024-02-04T17:29:22;7.28;;;2.80;;
77409;SDS011;66481;51.332;22.804;2024-02-04T17:33:43;5.50;;;2.53;;
77409;SDS011;66481;51.332;22.804;2024-02-04T17:37:48;5.63;;;3.53;;
77409;SDS011;66481;51.332;22.804;2024-02-04T17:41:51;6.75;;;2.58;;
77409;SDS011;66481;51.332;22.804;2024-02-04T17:45:53;6.78;;;2.40;;
77409;SDS011;66481;51.332;22.804;2024-02-04T17:49:59;5.78;;;2.40;;
77409;SDS011;66481;51.332;22.804;2024-02-04T17:54:03;5.00;;;2.22;;
77409;SDS011;66481;51.332;22.804;2024-02-04T17:58:04;7.45;;;2.92;;
77409;SDS011;66481;51.332;22.804;2024-02-04T18:02:06;5.22;;;2.42;;
77409;SDS011;66481;51.332;22.804;2024-02-04T18:06:07;5.35;;;2.63;;
77409;SDS011;66481;51.332;22.804;2024-02-04T18:10:10;5.78;;;2.28;;
77409;SDS011;66481;51.332;22.804;2024-02-04T18:14:11;3.90;;;2.13;;
77409;SDS011;66481;51.332;22.804;2024-02-04T18:18:12;6.35;;;2.42;;
77409;SDS011;66481;51.332;22.804;2024-02-04T18:22:14;3.75;;;2.25;;
77409;SDS011;66481;51.332;22.804;2024-02-04T18:26:18;6.28;;;2.83;;
77409;SDS011;66481;51.332;22.804;2024-02-04T18:30:29;6.45;;;2.25;;
77409;SDS011;66481;51.332;22.804;2024-02-04T18:34:31;9.10;;;2.78;;
77409;SDS011;66481;51.332;22.804;2024-02-04T18:38:33;8.32;;;2.42;;
77409;SDS011;66481;51.332;22.804;2024-02-04T18:42:35;7.53;;;3.78;;
77409;SDS011;66481;51.332;22.804;2024-02-04T18:46:37;9.93;;;3.33;;
77409;SDS011;66481;51.332;22.804;2024-02-04T18:50:39;9.73;;;3.40;;
77409;SDS011;66481;51.332;22.804;2024-02-04T18:54:40;8.48;;;3.00;;
77409;SDS011;66481;51.332;22.804;2024-02-04T18:58:42;5.35;;;2.20;;
77409;SDS011;66481;51.332;22.804;2024-02-04T19:04:01;11.05;;;3.50;;
77409;SDS011;66481;51.332;22.804;2024-02-04T19:08:03;12.18;;;2.90;;
77409;SDS011;66481;51.332;22.804;2024-02-04T19:12:08;7.25;;;2.45;;
77409;SDS011;66481;51.332;22.804;2024-02-04T19:16:09;9.50;;;3.03;;
77409;SDS011;66481;51.332;22.804;2024-02-04T19:20:20;5.32;;;2.45;;
77409;SDS011;66481;51.332;22.804;2024-02-04T19:24:21;14.98;;;4.70;;
77409;SDS011;66481;51.332;22.804;2024-02-04T19:28:24;6.70;;;3.40;;
77409;SDS011;66481;51.332;22.804;2024-02-04T19:32:25;10.27;;;3.00;;
77409;SDS011;66481;51.332;22.804;2024-02-04T19:36:29;7.78;;;2.60;;
77409;SDS011;66481;51.332;22.804;2024-02-04T19:40:31;6.57;;;2.88;;
77409;SDS011;66481;51.332;22.804;2024-02-04T19:44:33;5.53;;;2.75;;
77409;SDS011;66481;51.332;22.804;2024-02-04T19:48:34;3.20;;;2.33;;
77409;SDS011;66481;51.332;22.804;2024-02-04T19:52:36;4.72;;;2.38;;
77409;SDS011;66481;51.332;22.804;2024-02-04T19:56:39;7.85;;;1.90;;
77409;SDS011;66481;51.332;22.804;2024-02-04T20:00:41;9.75;;;2.70;;
77409;SDS011;66481;51.332;22.804;2024-02-04T20:04:43;9.38;;;2.45;;
77409;SDS011;66481;51.332;22.804;2024-02-04T20:08:48;4.57;;;2.53;;
77409;SDS011;66481;51.332;22.804;2024-02-04T20:12:50;5.40;;;2.25;;
77409;SDS011;66481;51.332;22.804;2024-02-04T20:16:52;4.68;;;2.08;;
77409;SDS011;66481;51.332;22.804;2024-02-04T20:20:54;4.95;;;2.72;;
77409;SDS011;66481;51.332;22.804;2024-02-04T20:24:55;5.93;;;2.33;;
77409;SDS011;66481;51.332;22.804;2024-02-04T20:28:59;3.75;;;2.03;;
77409;SDS011;66481;51.332;22.804;2024-02-04T20:33:02;6.75;;;2.40;;
77409;SDS011;66481;51.332;22.804;2024-02-04T20:37:05;4.93;;;2.28;;
77409;SDS011;66481;51.332;22.804;2024-02-04T20:41:06;2.22;;;1.27;;
77409;SDS011;66481;51.332;22.804;2024-02-04T20:45:10;4.90;;;2.00;;
77409;SDS011;66481;51.332;22.804;2024-02-04T20:49:12;6.22;;;2.40;;
77409;SDS011;66481;51.332;22.804;2024-02-04T20:53:14;7.35;;;2.10;;
77409;SDS011;66481;51.332;22.804;2024-02-04T20:57:15;6.93;;;2.28;;
77409;SDS011;66481;51.332;22.804;2024-02-04T21:01:17;3.00;;;1.80;;
77409;SDS011;66481;51.332;22.804;2024-02-04T21:05:19;5.75;;;1.83;;
77409;SDS011;66481;51.332;22.804;2024-02-04T21:09:21;7.10;;;2.42;;
77409;SDS011;66481;51.332;22.804;2024-02-04T21:13:23;5.65;;;3.33;;
77409;SDS011;66481;51.332;22.804;2024-02-04T21:17:23;4.97;;;2.20;;
77409;SDS011;66481;51.332;22.804;2024-02-04T21:21:25;2.47;;;1.60;;
77409;SDS011;66481;51.332;22.804;2024-02-04T21:25:26;5.25;;;2.25;;
77409;SDS011;66481;51.332;22.804;2024-02-04T21:29:28;2.78;;;1.65;;
77409;SDS011;66481;51.332;22.804;2024-02-04T21:33:32;3.83;;;1.95;;
77409;SDS011;66481;51.332;22.804;2024-02-04T21:37:33;3.90;;;2.22;;
77409;SDS011;66481;51.332;22.804;2024-02-04T21:41:36;5.80;;;2.58;;
77409;SDS011;66481;51.332;22.804;2024-02-04T21:45:40;4.30;;;2.83;;
77409;SDS011;66481;51.332;22.804;2024-02-04T21:49:42;4.47;;;2.05;;
77409;SDS011;66481;51.332;22.804;2024-02-04T21:53:45;3.38;;;1.90;;
77409;SDS011;66481;51.332;22.804;2024-02-04T21:57:49;5.20;;;2.17;;
77409;SDS011;66481;51.332;22.804;2024-02-04T22:01:52;2.70;;;1.55;;
77409;SDS011;66481;51.332;22.804;2024-02-04T22:05:55;5.13;;;2.53;;
77409;SDS011;66481;51.332;22.804;2024-02-04T22:09:57;7.22;;;2.45;;
77409;SDS011;66481;51.332;22.804;2024-02-04T22:13:59;5.03;;;2.35;;
77409;SDS011;66481;51.332;22.804;2024-02-04T22:18:00;4.22;;;1.95;;
77409;SDS011;66481;51.332;22.804;2024-02-04T22:22:02;4.25;;;2.20;;
77409;SDS011;66481;51.332;22.804;2024-02-04T22:26:05;4.68;;;2.08;;
77409;SDS011;66481;51.332;22.804;2024-02-04T22:30:07;5.88;;;2.25;;
77409;SDS011;66481;51.332;22.804;2024-02-04T22:34:12;4.97;;;2.13;;
77409;SDS011;66481;51.332;22.804;2024-02-04T22:38:16;4.28;;;2.38;;
77409;SDS011;66481;51.332;22.804;2024-02-04T22:42:25;5.80;;;2.92;;
77409;SDS011;66481;51.332;22.804;2024-02-04T22:46:27;5.63;;;2.28;;
77409;SDS011;66481;51.332;22.804;2024-02-04T22:50:31;7.50;;;2.58;;
77409;SDS011;66481;51.332;22.804;2024-02-04T22:54:32;8.98;;;3.92;;
77409;SDS011;66481;51.332;22.804;2024-02-04T22:58:35;4.18;;;2.30;;
77409;SDS011;66481;51.332;22.804;2024-02-04T23:02:36;6.38;;;2.90;;
77409;SDS011;66481;51.332;22.804;2024-02-04T23:06:37;4.78;;;2.08;;
77409;SDS011;66481;51.332;22.804;2024-02-04T23:10:41;5.00;;;2.58;;
77409;SDS011;66481;51.332;22.804;2024-02-04T23:14:43;5.78;;;2.25;;
77409;SDS011;66481;51.332;22.804;2024-02-04T23:18:47;4.95;;;2.35;;
77409;SDS011;66481;51.332;22.804;2024-02-04T23:22:49;2.97;;;2.17;;
77409;SDS011;66481;51.332;22.804;2024-02-04T23:26:51;4.70;;;2.10;;
77409;SDS011;66481;51.332;22.804;2024-02-04T23:30:53;3.53;;;2.47;;
77409;SDS011;66481;51.332;22.804;2024-02-04T23:34:57;8.07;;;2.20;;
77409;SDS011;66481;51.332;22.804;2024-02-04T23:39:00;3.85;;;2.15;;
77409;SDS011;66481;51.332;22.804;2024-02-04T23:43:02;7.68;;;2.20;;
77409;SDS011;66481;51.332;22.804;2024-02-04T23:47:04;7.20;;;2.47;;
77409;SDS011;66481;51.332;22.804;2024-02-04T23:51:05;4.70;;;2.13;;
77409;SDS011;66481;51.332;22.804;2024-02-04T23:55:08;5.18;;;2.28;;
77409;SDS011;66481;51.332;22.804;2024-02-04T23:59:09;3.20;;;1.98;;
